Time;durP1;ratioP1;P1;durP2;ratioP2;P2;SDS_P1;SDS_P2;PMS_P1;PMS_P2;Temp;Humidity;BMP_temperature;BMP_pressure;BME280_temperature;BME280_humidity;BME280_pressure;Samples;Min_cycle;Max_cycle;Signal;HPM_P1;HPM_P2
2023/09/12 00:02:16;;;;;;;36.77;31.00;;;25.20;89.40;;;27.96;56.44;101163.38;4936100;29;20218;-63
2023/09/12 00:04:43;;;;;;;37.97;32.00;;;25.20;89.60;;;27.89;56.57;101152.03;4935737;29;20726;-63
2023/09/12 00:07:10;;;;;;;38.83;33.33;;;25.10;89.60;;;27.84;56.91;101143.13;4935936;29;20194;-62
2023/09/12 00:09:37;;;;;;;39.83;31.63;;;25.10;90.00;;;27.80;57.14;101117.72;4934795;29;20614;-63
2023/09/12 00:12:05;;;;;;;40.50;32.57;;;25.10;90.10;;;27.76;57.32;101122.91;4936235;29;20198;-61
2023/09/12 00:14:34;;;;;;;38.10;30.07;;;25.00;90.30;;;27.73;57.21;101112.63;4935893;29;20675;-62
2023/09/12 00:17:01;;;;;;;36.07;30.93;;;25.00;90.30;;;27.65;57.68;101083.44;4936054;29;20194;-62
2023/09/12 00:19:28;;;;;;;33.97;30.27;;;24.90;90.40;;;27.60;58.01;101052.91;4920246;29;20246;-62
2023/09/12 00:21:55;;;;;;;39.73;33.80;;;24.90;90.60;;;27.58;58.12;101034.22;4916785;29;20285;-62
2023/09/12 00:24:22;;;;;;;37.00;29.17;;;24.80;90.70;;;27.52;58.28;101032.66;4916899;29;20242;-63
2023/09/12 00:26:49;;;;;;;35.77;29.37;;;24.80;90.70;;;27.47;58.42;101030.78;4934341;29;20206;-62
2023/09/12 00:29:16;;;;;;;33.97;28.60;;;24.70;90.90;;;27.44;58.46;101044.06;4932452;29;20218;-63
2023/09/12 00:31:45;;;;;;;30.60;26.17;;;24.60;91.00;;;27.39;58.60;101052.19;4920447;29;20222;-61
2023/09/12 00:34:16;;;;;;;32.20;26.50;;;24.60;91.10;;;27.38;58.63;101064.09;4935019;29;20217;-62
2023/09/12 00:36:43;;;;;;;39.20;31.40;;;24.60;91.30;;;27.39;58.68;101073.81;4938686;29;20242;-62
2023/09/12 00:39:10;;;;;;;33.23;28.63;;;24.60;91.40;;;27.38;58.39;101066.81;4929823;29;20241;-63
2023/09/12 00:41:37;;;;;;;33.03;29.27;;;24.50;91.30;;;27.34;58.48;101065.69;4920105;29;20234;-64
2023/09/12 00:44:05;;;;;;;33.73;28.97;;;24.50;91.20;;;27.32;58.76;101065.16;4921099;29;20247;-64
2023/09/12 00:46:35;;;;;;;34.57;30.63;;;24.50;91.40;;;27.27;59.32;101054.38;4938707;29;20285;-62
2023/09/12 00:49:07;;;;;;;33.57;29.10;;;24.50;91.40;;;27.19;59.00;101061.19;4938699;29;20223;-62
2023/09/12 00:51:35;;;;;;;34.60;30.67;;;24.40;91.30;;;27.17;59.17;101097.69;4924227;29;20246;-62
2023/09/12 00:54:03;;;;;;;37.40;31.53;;;24.40;91.40;;;27.14;58.71;101126.09;4919681;29;20222;-62
2023/09/12 00:56:31;;;;;;;36.87;32.93;;;24.40;91.30;;;27.10;59.06;101140.44;4919845;29;20217;-62
2023/09/12 00:58:59;;;;;;;38.80;32.30;;;24.30;91.40;;;27.09;59.25;101160.44;4919524;29;20636;-61
2023/09/12 01:01:26;;;;;;;33.93;28.13;;;24.30;91.60;;;27.09;59.17;101155.03;4934362;29;20206;-62
2023/09/12 01:03:55;;;;;;;36.20;32.47;;;24.30;91.70;;;27.11;59.02;101164.47;4938764;29;20322;-63
2023/09/12 01:06:28;;;;;;;39.13;33.97;;;24.30;91.70;;;27.10;58.72;101172.88;4938501;29;20216;-64
2023/09/12 01:08:55;;;;;;;36.93;32.97;;;24.30;91.70;;;27.09;59.17;101182.06;4938584;29;20218;-61
2023/09/12 01:11:24;;;;;;;33.73;30.07;;;24.20;91.70;;;27.09;59.49;101190.97;4938845;29;20198;-64
2023/09/12 01:13:51;;;;;;;34.97;30.13;;;24.20;91.80;;;27.11;59.12;101188.00;4938453;29;20608;-63
2023/09/12 01:16:18;;;;;;;37.57;31.30;;;24.20;91.80;;;27.12;58.84;101192.31;4938466;29;20226;-63
2023/09/12 01:18:46;;;;;;;34.27;30.57;;;24.20;91.80;;;27.13;59.14;101169.59;4936218;29;20579;-62
2023/09/12 01:21:40;;;;;;;37.57;31.83;;;24.30;91.90;;;27.08;58.91;101169.59;4938717;29;20194;-62
2023/09/12 01:24:59;;;;;;;34.80;30.10;;;24.20;91.90;;;27.05;59.09;101164.75;4938465;29;20178;-62
2023/09/12 01:27:32;;;;;;;32.50;29.07;;;24.30;92.00;;;27.11;58.98;101169.06;4951865;29;20690;-62
2023/09/12 01:30:04;;;;;;;38.87;34.63;;;24.20;91.80;;;27.12;58.83;101170.69;4936791;29;20248;-63
2023/09/12 01:32:32;;;;;;;33.47;29.90;;;24.30;91.70;;;27.12;58.96;101171.53;4935345;29;20600;-62
2023/09/12 01:35:00;;;;;;;40.03;35.70;;;24.30;91.70;;;27.12;58.91;101160.69;4927071;29;20675;-63
2023/09/12 01:37:27;;;;;;;41.77;35.83;;;24.30;91.80;;;27.15;58.83;101183.66;4937680;29;20198;-63
2023/09/12 01:39:54;;;;;;;41.23;36.53;;;24.30;91.80;;;27.11;59.17;101207.72;4922813;29;20307;-62
2023/09/12 01:42:22;;;;;;;47.60;37.43;;;24.30;91.70;;;27.06;58.88;101199.63;4918408;29;20190;-62
2023/09/12 01:44:55;;;;;;;45.77;39.27;;;24.30;91.70;;;26.97;58.89;101195.84;4926104;29;20198;-62
2023/09/12 01:47:24;;;;;;;40.40;35.67;;;24.20;92.10;;;26.96;58.85;101188.03;4932166;29;20218;-63
2023/09/12 01:49:56;;;;;;;40.57;35.80;;;24.20;91.70;;;26.92;59.24;101163.41;4918522;29;20230;-62
2023/09/12 01:52:27;;;;;;;37.03;33.17;;;24.10;91.90;;;26.90;59.55;101168.28;4935270;29;20293;-63
2023/09/12 01:54:56;;;;;;;37.60;33.00;;;24.10;92.00;;;26.91;59.90;101169.13;4937644;29;20296;-64
2023/09/12 01:57:23;;;;;;;41.50;33.90;;;24.10;92.20;;;26.92;59.82;101155.31;4936206;29;20240;-62
2023/09/12 01:59:52;;;;;;;37.43;33.53;;;24.10;92.30;;;26.95;59.94;101145.84;4937290;29;20222;-62
2023/09/12 02:02:19;;;;;;;35.13;29.33;;;24.10;92.40;;;26.96;60.38;101142.09;4937909;29;20577;-62
2023/09/12 02:04:58;;;;;;;32.83;29.43;;;24.10;92.60;;;26.99;60.14;101133.41;4937279;29;20190;-63
2023/09/12 02:07:31;;;;;;;35.87;30.50;;;24.10;92.60;;;26.93;60.19;101113.72;4937406;29;20253;-63
2023/09/12 02:09:58;;;;;;;32.60;29.20;;;24.20;92.50;;;26.91;60.82;101104.25;4937244;29;20249;-62
2023/09/12 02:12:25;;;;;;;34.27;28.77;;;24.10;92.40;;;26.90;60.88;101113.44;4937490;29;20222;-62
2023/09/12 02:14:54;;;;;;;33.10;29.63;;;24.10;92.60;;;26.92;60.59;101138.28;4937011;29;20218;-63
2023/09/12 02:17:21;;;;;;;35.67;31.43;;;24.20;92.70;;;26.93;60.44;101140.72;4937236;29;20217;-63
2023/09/12 02:19:48;;;;;;;31.20;27.90;;;24.20;92.70;;;26.94;60.12;101136.13;4936852;29;20605;-63
2023/09/12 02:22:15;;;;;;;34.93;31.13;;;24.10;92.70;;;26.96;60.29;101166.41;4937190;29;20194;-63
2023/09/12 02:24:42;;;;;;;35.67;31.73;;;24.10;92.80;;;26.94;60.52;101176.66;4936800;29;20200;-63
2023/09/12 02:27:09;;;;;;;34.30;29.43;;;24.10;92.70;;;26.93;60.33;101185.88;4937033;29;20213;-62
2023/09/12 02:29:38;;;;;;;25.87;23.07;;;24.10;92.80;;;26.95;60.21;101192.63;4936739;29;20221;-63
2023/09/12 02:32:07;;;;;;;30.57;26.10;;;24.10;92.80;;;26.98;60.81;101194.75;4937027;29;20222;-62
2023/09/12 02:34:34;;;;;;;32.70;29.03;;;24.10;92.90;;;27.02;60.78;101176.94;4917838;29;20229;-63
2023/09/12 02:37:01;;;;;;;30.50;27.40;;;24.10;93.00;;;27.04;60.42;101165.84;4917504;29;20195;-63
2023/09/12 02:39:28;;;;;;;29.93;26.90;;;24.10;92.90;;;27.03;60.55;101156.13;4935094;29;20219;-63
2023/09/12 02:41:55;;;;;;;29.53;25.63;;;24.20;92.70;;;27.06;60.25;101152.84;4936839;29;20288;-64
2023/09/12 02:44:22;;;;;;;29.60;26.40;;;24.20;92.70;;;27.09;60.03;101144.22;4928635;29;20198;-62
2023/09/12 02:46:51;;;;;;;29.37;26.30;;;24.20;92.60;;;27.11;60.16;101136.63;4936597;29;20202;-63
2023/09/12 02:49:19;;;;;;;28.33;25.43;;;24.20;92.50;;;27.09;60.11;101155.84;4936517;29;20221;-62
2023/09/12 02:51:46;;;;;;;31.40;27.90;;;24.30;92.50;;;27.06;59.96;101178.00;4935601;29;20196;-63
2023/09/12 02:54:13;;;;;;;34.50;29.90;;;24.30;92.40;;;27.05;59.91;101199.91;4935734;29;20242;-63
2023/09/12 02:56:40;;;;;;;31.37;28.07;;;24.30;92.50;;;27.03;59.85;101200.16;4936648;29;20672;-63
2023/09/12 02:59:07;;;;;;;35.80;30.93;;;24.20;92.50;;;27.01;59.73;101202.31;4935882;29;20218;-63
2023/09/12 03:01:34;;;;;;;34.33;30.70;;;24.20;92.40;;;26.94;59.80;101195.56;4936994;29;20225;-63
2023/09/12 03:04:02;;;;;;;35.73;32.23;;;24.10;92.30;;;26.81;60.66;101176.13;4936448;29;20266;-63
2023/09/12 03:06:31;;;;;;;35.47;31.60;;;24.10;92.40;;;26.74;60.95;101170.16;4936461;29;20202;-63
2023/09/12 03:08:58;;;;;;;35.00;31.50;;;24.10;92.60;;;26.67;61.30;101166.13;4917422;29;20254;-63
2023/09/12 03:11:27;;;;;;;39.27;34.90;;;24.00;92.60;;;26.58;61.12;101160.44;4917421;29;20199;-63
2023/09/12 03:13:54;;;;;;;32.73;29.47;;;24.00;92.90;;;26.49;61.55;101167.47;4917324;29;20213;-63
2023/09/12 03:16:23;;;;;;;38.17;34.37;;;23.90;93.00;;;26.42;62.33;101160.69;4917131;29;20650;-63
2023/09/12 03:18:51;;;;;;;41.07;36.90;;;23.90;93.20;;;26.33;62.20;101163.13;4927609;29;20639;-62
2023/09/12 03:21:18;;;;;;;39.17;35.03;;;23.80;93.30;;;26.29;62.67;101166.63;4935685;29;20201;-63
2023/09/12 03:23:46;;;;;;;41.53;37.03;;;23.70;93.40;;;26.22;63.13;101166.09;4936174;29;20198;-62
2023/09/12 03:26:14;;;;;;;35.97;32.13;;;23.70;93.60;;;26.18;62.66;101155.00;4927530;29;20398;-62
2023/09/12 03:28:41;;;;;;;35.97;32.17;;;23.70;93.60;;;26.16;63.07;101151.75;4916971;29;20313;-63
2023/09/12 03:31:14;;;;;;;39.10;35.13;;;23.60;93.60;;;26.14;63.48;101143.13;4929641;29;20336;-63
2023/09/12 03:33:42;;;;;;;40.40;36.23;;;23.60;93.80;;;26.12;63.36;101142.59;4924028;29;20207;-64
2023/09/12 03:36:09;;;;;;;35.10;31.57;;;23.60;93.90;;;26.11;63.54;101143.66;4917075;29;20302;-63
2023/09/12 03:38:37;;;;;;;40.53;36.50;;;23.50;93.90;;;26.11;63.37;101127.44;4920994;29;20225;-62
2023/09/12 03:41:05;;;;;;;32.13;28.80;;;23.50;94.00;;;26.11;62.92;101122.06;4935920;29;20201;-63
2023/09/12 03:43:33;;;;;;;38.47;34.53;;;23.50;93.90;;;26.13;63.52;101114.50;4936098;29;20285;-61
2023/09/12 03:46:00;;;;;;;34.13;30.57;;;23.50;94.00;;;26.15;63.50;101106.94;4930107;29;20293;-65
2023/09/12 03:48:30;;;;;;;35.70;32.00;;;23.50;94.00;;;26.19;63.09;101091.84;4935627;29;20659;-63
2023/09/12 03:50:57;;;;;;;34.53;30.97;;;23.50;94.10;;;26.23;63.43;101098.31;4935941;29;20277;-63
2023/09/12 03:53:26;;;;;;;30.83;27.63;;;23.50;94.10;;;26.30;63.04;101082.66;4936243;29;20317;-61
2023/09/12 03:55:53;;;;;;;32.57;28.97;;;23.60;94.10;;;26.35;63.14;101076.44;4935627;29;20218;-63
2023/09/12 03:58:22;;;;;;;33.80;30.47;;;23.60;94.30;;;26.40;63.31;101052.97;4935504;29;20202;-62
2023/09/12 04:00:49;;;;;;;33.83;30.30;;;23.60;94.40;;;26.47;62.93;101056.19;4935579;29;20667;-63
2023/09/12 04:03:17;;;;;;;32.20;28.73;;;23.60;94.30;;;26.52;63.13;101042.69;4935957;29;20201;-63
2023/09/12 04:05:46;;;;;;;33.93;29.87;;;23.70;94.30;;;26.55;62.70;101036.75;4938554;29;20277;-63
2023/09/12 04:08:13;;;;;;;34.07;30.57;;;23.70;94.30;;;26.59;62.60;101040.50;4954227;29;20198;-63
2023/09/12 04:10:40;;;;;;;31.90;28.70;;;23.80;94.30;;;26.61;62.78;101049.16;4937764;29;20228;-60
2023/09/12 04:13:08;;;;;;;32.07;28.80;;;23.80;94.30;;;26.65;62.11;101066.44;4939136;29;20578;-63
2023/09/12 04:15:36;;;;;;;29.43;26.40;;;23.80;94.30;;;26.68;62.53;101090.19;4939207;29;20229;-62
2023/09/12 04:18:04;;;;;;;31.07;27.87;;;23.80;94.20;;;26.72;62.16;101120.97;4934238;29;20209;-62
2023/09/12 04:20:32;;;;;;;32.10;27.67;;;23.80;94.10;;;26.74;61.84;101126.91;4919754;29;20627;-62
2023/09/12 04:23:02;;;;;;;28.60;25.60;;;23.80;94.10;;;26.78;61.73;101133.44;4920471;29;20195;-63
2023/09/12 04:25:30;;;;;;;26.07;23.27;;;23.80;94.10;;;26.81;61.63;101122.09;4925725;29;20596;-64
2023/09/12 04:27:57;;;;;;;34.00;30.60;;;23.90;94.20;;;26.81;61.73;101119.38;4939047;29;20190;-63
2023/09/12 04:30:24;;;;;;;33.17;29.53;;;23.90;94.00;;;26.80;61.77;101128.59;4938866;29;20280;-62
2023/09/12 04:32:52;;;;;;;35.77;32.03;;;23.90;93.80;;;26.78;61.22;101143.44;4933332;29;20218;-63
2023/09/12 04:35:20;;;;;;;33.20;30.00;;;23.90;93.70;;;26.76;61.37;101129.41;4918666;29;20226;-64
2023/09/12 04:37:48;;;;;;;28.80;25.97;;;23.90;93.60;;;26.74;61.54;101118.81;4937317;29;20213;-63
2023/09/12 04:40:15;;;;;;;36.10;32.40;;;23.90;93.60;;;26.72;61.22;101122.91;4938725;29;20627;-63
2023/09/12 04:42:42;;;;;;;31.67;28.50;;;23.90;93.40;;;26.70;61.18;101125.03;4939234;29;20190;-62
2023/09/12 04:45:10;;;;;;;29.63;26.53;;;23.90;93.40;;;26.68;61.54;101122.63;4928750;29;20202;-62
2023/09/12 04:47:37;;;;;;;34.77;31.13;;;23.90;93.60;;;26.63;61.53;101114.50;4920518;29;20191;-63
2023/09/12 04:50:06;;;;;;;33.30;30.00;;;23.90;93.30;;;26.60;61.55;101115.06;4919423;29;20230;-67
2023/09/12 04:52:33;;;;;;;30.57;27.53;;;23.90;93.40;;;26.59;61.73;101108.03;4917907;29;20703;-62
2023/09/12 04:55:01;;;;;;;32.97;29.67;;;23.90;93.40;;;26.61;61.72;101111.28;4919338;29;20261;-63
2023/09/12 04:57:30;;;;;;;32.57;29.17;;;23.90;93.50;;;26.64;61.41;101124.25;4933247;29;20205;-64
2023/09/12 04:59:58;;;;;;;26.97;24.27;;;23.90;93.60;;;26.67;61.12;101136.41;4937826;29;20228;-62
2023/09/12 05:02:25;;;;;;;33.70;30.30;;;23.90;93.50;;;26.67;61.19;101142.59;4938285;29;20240;-62
2023/09/12 05:04:53;;;;;;;30.23;27.13;;;23.80;93.50;;;26.69;61.35;101145.88;4938179;29;20278;-62
2023/09/12 05:07:22;;;;;;;30.50;27.40;;;23.90;93.60;;;26.69;61.32;101153.97;4937523;29;20208;-63
2023/09/12 05:09:49;;;;;;;31.97;28.70;;;23.80;93.40;;;26.67;61.13;101152.63;4937474;29;20214;-61
2023/09/12 05:12:16;;;;;;;32.60;29.33;;;23.80;93.30;;;26.66;61.24;101146.41;4937990;29;20663;-63
2023/09/12 05:14:43;;;;;;;32.60;29.10;;;23.80;93.30;;;26.64;60.68;101137.75;4938217;29;20204;-64
2023/09/12 05:17:10;;;;;;;34.90;30.93;;;23.80;93.40;;;26.65;60.74;101143.94;4936806;29;20202;-62
2023/09/12 05:19:37;;;;;;;31.03;28.13;;;23.80;93.40;;;26.65;61.09;101144.75;4937681;29;20214;-61
2023/09/12 05:22:04;;;;;;;32.20;28.80;;;23.70;93.50;;;26.67;61.32;101131.00;4937233;29;20272;-63
2023/09/12 05:24:33;;;;;;;33.43;30.00;;;23.80;93.60;;;26.69;60.71;101135.06;4937615;29;20202;-63
2023/09/12 05:27:00;;;;;;;30.13;27.17;;;23.80;93.60;;;26.71;61.06;101132.88;4923242;29;20199;-62
2023/09/12 05:29:27;;;;;;;31.47;28.37;;;23.80;93.60;;;26.72;60.97;101134.50;4918448;29;20221;-66
2023/09/12 05:31:54;;;;;;;33.17;29.77;;;23.80;93.50;;;26.70;61.08;101131.25;4919935;29;20194;-63
2023/09/12 05:34:21;;;;;;;32.47;29.27;;;23.80;93.40;;;26.68;60.79;101136.13;4937414;29;20225;-63
2023/09/12 05:36:48;;;;;;;31.77;28.73;;;23.80;93.30;;;26.65;60.66;101128.56;4936453;29;20296;-65
2023/09/12 05:39:15;;;;;;;29.90;26.97;;;23.80;93.30;;;26.65;60.92;101127.75;4937414;29;20691;-63
2023/09/12 05:41:44;;;;;;;29.00;26.10;;;23.80;93.50;;;26.68;60.84;101132.59;4937095;29;20194;-63
2023/09/12 05:44:12;;;;;;;27.93;25.13;;;23.80;93.70;;;26.70;60.80;101142.06;4936615;29;20503;-64
2023/09/12 05:46:39;;;;;;;31.53;28.40;;;23.80;93.60;;;26.73;60.91;101135.31;4937105;29;20192;-64
2023/09/12 05:49:07;;;;;;;32.30;28.90;;;23.90;93.60;;;26.74;60.65;101145.03;4936613;29;20220;-64
2023/09/12 05:51:33;;;;;;;28.87;25.87;;;23.90;93.50;;;26.75;61.21;101144.78;4932767;29;20222;-64
2023/09/12 05:54:01;;;;;;;29.93;26.53;;;23.90;93.60;;;26.78;61.34;101143.44;4936804;29;20562;-64
2023/09/12 05:56:28;;;;;;;29.40;26.47;;;23.90;93.60;;;26.80;61.01;101152.91;4936633;29;20225;-63
2023/09/12 05:58:56;;;;;;;29.17;26.23;;;24.00;93.50;;;26.82;61.00;101153.44;4936743;29;20277;-65
2023/09/12 06:01:23;;;;;;;34.33;31.07;;;24.00;93.30;;;26.79;60.69;101156.66;4936542;29;20633;-61
2023/09/12 06:03:51;;;;;;;29.00;25.90;;;24.00;93.10;;;26.76;60.28;101162.63;4935687;29;20301;-64
2023/09/12 06:06:18;;;;;;;33.07;29.53;;;24.00;93.10;;;26.76;60.50;101157.25;4936875;29;20198;-61
2023/09/12 06:08:45;;;;;;;35.07;31.67;;;24.00;93.00;;;26.69;60.75;101164.78;4935889;29;20221;-63
2023/09/12 06:11:12;;;;;;;37.03;33.13;;;24.00;92.90;;;26.63;60.98;101163.13;4936467;29;20564;-61
2023/09/12 06:13:39;;;;;;;31.77;28.73;;;23.90;92.90;;;26.56;60.68;101168.00;4936004;29;20277;-63
2023/09/12 06:16:07;;;;;;;38.07;34.13;;;23.90;92.90;;;26.52;60.88;101161.53;4936306;29;20614;-62
2023/09/12 06:18:34;;;;;;;34.07;30.80;;;23.90;93.00;;;26.47;61.10;101156.13;4936127;29;20206;-66
2023/09/12 06:21:06;;;;;;;34.47;30.97;;;23.80;93.00;;;26.44;61.11;101159.34;4935071;29;20622;-63
2023/09/12 06:23:33;;;;;;;30.23;27.23;;;23.80;93.10;;;26.45;61.13;101160.97;4936157;29;20182;-63
2023/09/12 06:26:00;;;;;;;32.70;29.30;;;23.80;93.20;;;26.48;61.13;101157.72;4932051;29;20224;-63
2023/09/12 06:28:29;;;;;;;32.57;29.37;;;23.80;93.40;;;26.56;61.25;101153.69;4935589;29;20226;-63
2023/09/12 06:30:57;;;;;;;33.73;30.30;;;23.80;93.60;;;26.59;61.37;101151.25;4936054;29;20202;-67
2023/09/12 06:33:28;;;;;;;27.80;24.90;;;23.80;93.60;;;26.63;61.02;101146.94;4935396;29;20205;-62
2023/09/12 06:35:55;;;;;;;31.87;28.57;;;23.90;93.60;;;26.70;61.43;101163.69;4935495;29;20213;-63
2023/09/12 06:38:23;;;;;;;32.70;29.30;;;23.90;93.80;;;26.79;61.31;101155.88;4933657;29;20206;-63
2023/09/12 06:40:51;;;;;;;26.77;24.10;;;23.90;93.70;;;26.82;60.90;101156.13;4934809;29;20202;-61
2023/09/12 06:43:18;;;;;;;32.90;29.50;;;24.00;93.50;;;26.85;61.09;101146.69;4936414;29;20206;-63
2023/09/12 06:45:46;;;;;;;31.87;27.67;;;24.00;93.40;;;26.88;60.58;101145.31;4935385;29;20193;-63
2023/09/12 06:48:13;;;;;;;28.20;25.33;;;24.00;93.10;;;26.89;60.41;101149.66;4935946;29;20213;-63
2023/09/12 06:50:42;;;;;;;29.73;26.90;;;24.00;93.20;;;26.92;60.20;101139.09;4930996;29;20571;-60
2023/09/12 06:53:13;;;;;;;29.77;26.77;;;24.00;93.10;;;26.94;60.04;101145.03;4916893;29;20202;-63
2023/09/12 06:55:40;;;;;;;30.07;26.97;;;24.00;92.90;;;26.97;59.46;101143.69;4917345;29;20691;-65
2023/09/12 06:58:07;;;;;;;33.30;29.87;;;24.00;93.00;;;26.99;59.92;101138.81;4916884;29;20198;-63
2023/09/12 07:00:34;;;;;;;31.73;28.33;;;24.00;93.30;;;27.06;60.17;101144.75;4930370;29;20621;-62
2023/09/12 07:03:02;;;;;;;31.20;28.13;;;24.00;93.40;;;27.14;60.41;101155.00;4934954;29;20619;-62
2023/09/12 07:05:29;;;;;;;33.40;30.07;;;24.10;93.40;;;27.21;59.76;101153.66;4935690;29;20586;-61
2023/09/12 07:07:57;;;;;;;30.03;27.03;;;24.20;93.10;;;27.28;59.50;101147.94;4924533;29;20198;-63
2023/09/12 07:10:25;;;;;;;30.83;27.53;;;24.30;93.10;;;27.33;58.98;101148.75;4915206;29;20222;-64
2023/09/12 07:12:53;;;;;;;29.37;26.47;;;24.30;92.80;;;27.38;58.87;101143.34;4929175;29;20210;-64
2023/09/12 07:15:21;;;;;;;29.53;26.67;;;24.30;92.60;;;27.41;58.42;101136.56;4933272;29;20208;-65
2023/09/12 07:17:48;;;;;;;31.47;28.30;;;24.30;92.30;;;27.44;58.13;101141.41;4933262;29;20213;-64
2023/09/12 07:20:17;;;;;;;29.20;26.20;;;24.30;92.30;;;27.49;58.55;101138.69;4916281;29;20309;-63
2023/09/12 07:22:44;;;;;;;29.43;26.63;;;24.30;92.60;;;27.54;58.46;101152.22;4916395;29;20209;-64
2023/09/12 07:25:14;;;;;;;29.60;26.80;;;24.40;92.60;;;27.58;57.99;101163.28;4920938;29;20625;-64
2023/09/12 07:27:41;;;;;;;25.50;22.90;;;24.40;92.10;;;27.58;57.83;101158.69;4921911;29;20206;-64
2023/09/12 07:30:10;;;;;;;25.63;23.10;;;24.50;92.20;;;27.59;57.90;101165.72;4931816;29;20694;-64
2023/09/12 07:32:37;;;;;;;27.17;24.53;;;24.50;92.00;;;27.61;57.49;101163.53;4931700;29;20206;-64
2023/09/12 07:35:05;;;;;;;25.90;23.47;;;24.50;91.80;;;27.61;57.31;101168.94;4928273;29;20556;-64
2023/09/12 07:37:32;;;;;;;24.00;21.67;;;24.50;91.80;;;27.63;57.16;101174.06;4934713;29;20276;-66
2023/09/12 07:39:59;;;;;;;28.17;25.33;;;24.50;91.60;;;27.61;56.92;101173.56;4951176;28;20273;-64
2023/09/12 07:42:28;;;;;;;25.63;23.13;;;24.50;91.50;;;27.57;56.80;101181.44;4937517;29;20289;-64
2023/09/12 07:44:55;;;;;;;23.40;21.10;;;24.50;91.20;;;27.50;56.98;101179.00;4938229;29;20229;-64
2023/09/12 07:47:22;;;;;;;28.63;25.73;;;24.40;91.30;;;27.52;56.91;101176.03;4938483;29;20742;-65
2023/09/12 07:49:53;;;;;;;23.73;21.43;;;24.40;91.40;;;27.52;56.68;101184.97;4938748;29;20710;-63
2023/09/12 07:52:21;;;;;;;23.03;20.83;;;24.40;91.50;;;27.53;57.38;101186.56;4939005;29;20591;-64
2023/09/12 07:54:52;;;;;;;21.93;19.83;;;24.40;91.60;;;27.57;56.79;101199.53;4938567;29;20217;-64
2023/09/12 07:57:19;;;;;;;25.33;23.03;;;24.50;91.60;;;27.59;57.17;101203.59;4938938;29;20288;-65
2023/09/12 07:59:48;;;;;;;24.30;21.73;;;24.50;91.50;;;27.59;56.66;101198.19;4933355;29;20750;-63
2023/09/12 08:02:15;;;;;;;22.87;20.63;;;24.60;91.20;;;27.55;56.59;101193.59;4936178;29;20197;-63
2023/09/12 08:04:42;;;;;;;20.40;18.50;;;24.60;91.30;;;27.53;56.24;101188.44;4938147;29;20233;-64
2023/09/12 08:07:09;;;;;;;21.23;19.23;;;24.50;90.90;;;27.56;56.37;101196.03;4933537;29;20648;-64
2023/09/12 08:09:50;;;;;;;23.90;21.60;;;24.50;90.90;;;27.58;56.53;101193.84;4937639;29;20273;-64
2023/09/12 08:12:19;;;;;;;24.03;21.87;;;24.60;90.90;;;27.62;56.29;101200.34;4938305;29;20201;-62
2023/09/12 08:14:47;;;;;;;20.33;18.33;;;24.50;90.90;;;27.62;56.03;101213.88;4938863;29;20655;-64
2023/09/12 08:17:16;;;;;;;23.37;21.00;;;24.50;90.80;;;27.58;55.64;101220.09;4938466;29;20629;-62
2023/09/12 08:19:43;;;;;;;22.73;20.53;;;24.60;90.60;;;27.52;55.72;101214.72;4925216;29;20721;-63
2023/09/12 08:22:11;;;;;;;22.80;20.60;;;24.50;90.50;;;27.51;55.57;101212.28;4925975;29;20242;-63
2023/09/12 08:24:39;;;;;;;20.07;18.10;;;24.50;90.50;;;27.48;55.82;101208.22;4925488;29;20218;-63
2023/09/12 08:27:07;;;;;;;18.60;16.90;;;24.50;90.50;;;27.52;55.72;101213.91;4933217;29;20648;-63
2023/09/12 08:29:34;;;;;;;18.80;17.03;;;24.50;90.60;;;27.58;55.65;101217.38;4935008;29;20703;-61
2023/09/12 08:32:03;;;;;;;20.07;18.17;;;24.50;90.60;;;27.64;55.64;101222.53;4939087;29;20235;-63
2023/09/12 08:34:30;;;;;;;20.03;18.17;;;24.50;90.60;;;27.65;55.50;101213.31;4936773;29;20213;-62
2023/09/12 08:36:57;;;;;;;20.03;18.03;;;24.50;90.40;;;27.68;55.29;101217.34;4924076;29;20305;-64
2023/09/12 08:39:27;;;;;;;23.37;21.17;;;24.60;90.40;;;27.71;55.47;101219.53;4929843;29;20674;-62
2023/09/12 08:41:54;;;;;;;19.60;17.80;;;24.60;90.60;;;27.74;55.03;101218.97;4935446;29;20874;-64
2023/09/12 08:44:22;;;;;;;21.07;19.10;;;24.70;90.30;;;27.74;55.22;101217.06;4924281;29;20202;-63
2023/09/12 08:46:49;;;;;;;20.83;18.90;;;24.70;90.00;;;27.72;54.76;101213.81;4937932;29;20194;-63
2023/09/12 08:49:17;;;;;;;18.20;16.40;;;24.60;89.80;;;27.69;54.31;101230.63;4935561;29;20241;-64
2023/09/12 08:51:44;;;;;;;20.17;18.37;;;24.70;89.20;;;27.63;54.06;101223.59;4937609;29;20205;-64
2023/09/12 08:54:12;;;;;;;16.77;15.17;;;24.60;88.90;;;27.60;54.62;101232.25;4922113;29;20210;-62
2023/09/12 08:56:43;;;;;;;18.27;16.67;;;24.60;89.20;;;27.60;54.18;101226.06;4919033;29;20218;-63
2023/09/12 08:59:11;;;;;;;19.10;17.30;;;24.60;89.00;;;27.61;54.28;101222.25;4924745;29;20264;-66
2023/09/12 09:01:39;;;;;;;17.80;16.20;;;24.60;89.00;;;27.62;54.33;101219.28;4936131;29;20212;-64
2023/09/12 09:04:07;;;;;;;19.30;17.30;;;24.60;89.20;;;27.60;54.34;101229.53;4937405;29;20243;-64
2023/09/12 09:06:37;;;;;;;19.80;18.00;;;24.60;89.00;;;27.58;54.33;101229.03;4935336;29;20222;-66
2023/09/12 09:09:07;;;;;;;19.93;18.13;;;24.60;88.70;;;27.57;54.19;101232.84;4929457;29;20296;-64
2023/09/12 09:11:35;;;;;;;18.07;16.37;;;24.60;88.60;;;27.54;53.90;101238.78;4919418;29;20210;-64
2023/09/12 09:14:03;;;;;;;22.40;20.20;;;24.60;88.50;;;27.47;54.21;101243.66;4934877;29;20278;-64
2023/09/12 09:16:31;;;;;;;20.73;18.70;;;24.60;88.10;;;27.40;54.04;101253.97;4934606;29;20241;-64
2023/09/12 09:19:00;;;;;;;18.87;17.07;;;24.60;88.30;;;27.37;54.29;101257.16;4925302;29;20223;-62
2023/09/12 09:21:31;;;;;;;22.70;20.53;;;24.60;88.30;;;27.28;54.33;101261.53;4937007;29;20225;-64
2023/09/12 09:24:03;;;;;;;21.87;19.97;;;24.40;88.10;;;27.16;54.61;101269.09;4929187;29;20274;-65
2023/09/12 09:26:43;;;;;;;17.97;16.17;;;24.40;88.50;;;27.10;54.93;101270.19;4932023;29;20218;-64
2023/09/12 09:29:14;;;;;;;24.00;21.63;;;24.40;88.90;;;27.09;54.86;101268.56;4936260;29;20777;-64
2023/09/12 09:31:42;;;;;;;23.17;21.03;;;24.40;88.90;;;27.03;55.26;101272.34;4936571;29;20281;-64
2023/09/12 09:34:13;;;;;;;25.20;22.90;;;24.30;88.70;;;26.86;54.52;101278.81;4934963;29;20216;-64
2023/09/12 09:36:44;;;;;;;24.93;22.60;;;24.20;88.50;;;26.68;55.69;101284.72;4935446;29;20678;-64
2023/09/12 09:39:13;;;;;;;23.73;21.50;;;24.10;88.90;;;26.56;56.51;101281.44;4934150;29;20609;-65
2023/09/12 09:41:41;;;;;;;25.37;22.80;;;24.00;89.70;;;26.51;56.24;101288.72;4935990;29;20253;-64
2023/09/12 09:44:09;;;;;;;25.97;23.17;;;23.90;89.90;;;26.47;56.99;101284.94;4932932;29;20324;-64
2023/09/12 09:46:38;;;;;;;24.90;22.53;;;23.90;90.20;;;26.45;56.85;101289.78;4932223;29;20288;-63
2023/09/12 09:49:06;;;;;;;23.00;20.90;;;23.80;90.30;;;26.45;56.79;101296.00;4929898;29;20210;-64
2023/09/12 09:51:42;;;;;;;25.83;23.33;;;23.80;90.30;;;26.46;56.80;101297.63;4930889;29;20568;-63
2023/09/12 09:54:12;;;;;;;23.03;20.87;;;23.80;90.50;;;26.49;56.99;101297.09;4934761;29;20289;-63
2023/09/12 09:56:46;;;;;;;23.90;21.60;;;23.80;90.50;;;26.47;57.15;101304.66;4936316;29;20300;-63
2023/09/12 09:59:16;;;;;;;19.50;17.77;;;23.80;90.40;;;26.48;57.16;101300.84;4935610;29;20677;-63
2023/09/12 10:01:45;;;;;;;22.13;19.93;;;23.80;90.50;;;26.49;57.15;101294.41;4935697;28;20289;-65
2023/09/12 10:04:13;;;;;;;19.43;17.67;;;23.80;90.70;;;26.52;57.14;101293.88;4929668;29;21117;-58
2023/09/12 10:06:45;;;;;;;22.90;20.63;;;23.80;91.10;;;26.54;57.33;101294.41;4925772;29;20205;-59